Lillyville, Illinois
Current Conditions -  °F | °C
As of 8:15 AM on Sunday 25 Jan 2015 (Local Time) from K1H2 Reporting Station
Light Rain Light Rain  
Wind Chill:   Ceiling: 2000
Heat Index:   Visibility: 7mi
Dew Point:   Wind: 3mph
Humidity: 89%   Direction: 120°ESE
Pressure: 29.64"   Gusts: NA
Location:  39.1183°N, 88.6059°W
Report Text: K1H2 251415Z AUTO 12003KT 7SM -RA OVC020 04/02 A2964 RMK AO2 T00390023
Loading
Personal Weather Stations






























Interactive Weather Map New forecast layout! Learn more

10-Day Weather Forecast

Advertisements
Track Severe Weather on mobile